sensor_id;sensor_type;location;lat;lon;timestamp;P1;durP1;ratioP1;P2;durP2;ratioP2
68050;SDS011;54839;51.364;7.246;2023-04-06T00:01:30;11.23;;;9.33;;
68050;SDS011;54839;51.364;7.246;2023-04-06T00:03:55;13.90;;;8.90;;
68050;SDS011;54839;51.364;7.246;2023-04-06T00:06:21;13.67;;;11.73;;
68050;SDS011;54839;51.364;7.246;2023-04-06T00:08:46;12.10;;;10.13;;
68050;SDS011;54839;51.364;7.246;2023-04-06T00:11:12;14.37;;;9.13;;
68050;SDS011;54839;51.364;7.246;2023-04-06T00:13:37;11.93;;;9.50;;
68050;SDS011;54839;51.364;7.246;2023-04-06T00:16:03;11.67;;;9.30;;
68050;SDS011;54839;51.364;7.246;2023-04-06T00:18:30;12.23;;;9.97;;
68050;SDS011;54839;51.364;7.246;2023-04-06T00:20:56;17.07;;;9.83;;
68050;SDS011;54839;51.364;7.246;2023-04-06T00:23:22;12.80;;;9.70;;
68050;SDS011;54839;51.364;7.246;2023-04-06T00:25:47;13.83;;;10.27;;
68050;SDS011;54839;51.364;7.246;2023-04-06T00:28:13;10.27;;;8.50;;
68050;SDS011;54839;51.364;7.246;2023-04-06T00:30:40;10.70;;;8.43;;
68050;SDS011;54839;51.364;7.246;2023-04-06T00:33:06;14.13;;;9.40;;
68050;SDS011;54839;51.364;7.246;2023-04-06T00:35:31;14.70;;;9.40;;
68050;SDS011;54839;51.364;7.246;2023-04-06T00:37:57;12.23;;;10.43;;
68050;SDS011;54839;51.364;7.246;2023-04-06T00:40:22;14.10;;;11.13;;
68050;SDS011;54839;51.364;7.246;2023-04-06T00:42:48;13.40;;;10.07;;
68050;SDS011;54839;51.364;7.246;2023-04-06T00:45:14;13.20;;;9.60;;
68050;SDS011;54839;51.364;7.246;2023-04-06T00:47:39;15.07;;;10.40;;
68050;SDS011;54839;51.364;7.246;2023-04-06T00:50:05;14.43;;;9.80;;
68050;SDS011;54839;51.364;7.246;2023-04-06T00:52:31;12.90;;;9.43;;
68050;SDS011;54839;51.364;7.246;2023-04-06T00:54:58;10.90;;;9.10;;
68050;SDS011;54839;51.364;7.246;2023-04-06T00:57:23;13.13;;;8.97;;
68050;SDS011;54839;51.364;7.246;2023-04-06T00:59:49;16.63;;;10.00;;
68050;SDS011;54839;51.364;7.246;2023-04-06T01:02:14;12.77;;;9.50;;
68050;SDS011;54839;51.364;7.246;2023-04-06T01:04:40;12.20;;;8.50;;
68050;SDS011;54839;51.364;7.246;2023-04-06T01:07:06;11.87;;;8.80;;
68050;SDS011;54839;51.364;7.246;2023-04-06T01:09:31;13.20;;;9.43;;
68050;SDS011;54839;51.364;7.246;2023-04-06T01:11:58;11.57;;;7.83;;
68050;SDS011;54839;51.364;7.246;2023-04-06T01:14:24;11.63;;;8.93;;
68050;SDS011;54839;51.364;7.246;2023-04-06T01:16:50;10.33;;;8.20;;
68050;SDS011;54839;51.364;7.246;2023-04-06T01:19:16;10.30;;;8.63;;
68050;SDS011;54839;51.364;7.246;2023-04-06T01:21:42;8.53;;;7.33;;
68050;SDS011;54839;51.364;7.246;2023-04-06T01:24:08;9.10;;;8.20;;
68050;SDS011;54839;51.364;7.246;2023-04-06T01:26:34;10.77;;;7.80;;
68050;SDS011;54839;51.364;7.246;2023-04-06T01:29:00;9.77;;;7.73;;
68050;SDS011;54839;51.364;7.246;2023-04-06T01:31:27;10.40;;;8.30;;
68050;SDS011;54839;51.364;7.246;2023-04-06T01:33:52;12.10;;;8.47;;
68050;SDS011;54839;51.364;7.246;2023-04-06T01:36:18;12.67;;;8.10;;
68050;SDS011;54839;51.364;7.246;2023-04-06T01:38:44;11.37;;;8.30;;
68050;SDS011;54839;51.364;7.246;2023-04-06T01:41:10;11.30;;;7.57;;
68050;SDS011;54839;51.364;7.246;2023-04-06T01:43:35;8.67;;;7.77;;
68050;SDS011;54839;51.364;7.246;2023-04-06T01:46:01;9.03;;;6.60;;
68050;SDS011;54839;51.364;7.246;2023-04-06T01:48:27;12.20;;;8.67;;
68050;SDS011;54839;51.364;7.246;2023-04-06T01:50:53;14.73;;;8.27;;
68050;SDS011;54839;51.364;7.246;2023-04-06T01:53:19;9.53;;;7.07;;
68050;SDS011;54839;51.364;7.246;2023-04-06T01:55:45;13.77;;;9.57;;
68050;SDS011;54839;51.364;7.246;2023-04-06T01:58:10;7.90;;;7.13;;
68050;SDS011;54839;51.364;7.246;2023-04-06T02:00:37;8.13;;;7.23;;
68050;SDS011;54839;51.364;7.246;2023-04-06T02:03:02;12.70;;;7.03;;
68050;SDS011;54839;51.364;7.246;2023-04-06T02:05:29;11.63;;;8.10;;
68050;SDS011;54839;51.364;7.246;2023-04-06T02:07:55;7.97;;;7.17;;
68050;SDS011;54839;51.364;7.246;2023-04-06T02:10:21;9.17;;;8.20;;
68050;SDS011;54839;51.364;7.246;2023-04-06T02:12:47;11.20;;;7.03;;
68050;SDS011;54839;51.364;7.246;2023-04-06T02:15:13;8.20;;;7.33;;
68050;SDS011;54839;51.364;7.246;2023-04-06T02:17:39;8.80;;;7.13;;
68050;SDS011;54839;51.364;7.246;2023-04-06T02:20:05;8.60;;;7.80;;
68050;SDS011;54839;51.364;7.246;2023-04-06T02:22:31;11.03;;;7.57;;
68050;SDS011;54839;51.364;7.246;2023-04-06T02:24:57;7.63;;;6.80;;
68050;SDS011;54839;51.364;7.246;2023-04-06T02:27:23;10.53;;;7.43;;
68050;SDS011;54839;51.364;7.246;2023-04-06T02:29:49;8.30;;;7.50;;
68050;SDS011;54839;51.364;7.246;2023-04-06T02:32:15;9.97;;;8.93;;
68050;SDS011;54839;51.364;7.246;2023-04-06T02:34:40;10.27;;;7.27;;
68050;SDS011;54839;51.364;7.246;2023-04-06T02:37:06;10.17;;;7.57;;
68050;SDS011;54839;51.364;7.246;2023-04-06T02:39:31;8.60;;;7.00;;
68050;SDS011;54839;51.364;7.246;2023-04-06T02:41:57;9.13;;;7.40;;
68050;SDS011;54839;51.364;7.246;2023-04-06T02:44:22;9.33;;;7.13;;
68050;SDS011;54839;51.364;7.246;2023-04-06T02:46:48;10.20;;;7.30;;
68050;SDS011;54839;51.364;7.246;2023-04-06T02:49:14;9.77;;;7.57;;
68050;SDS011;54839;51.364;7.246;2023-04-06T02:51:39;10.50;;;8.07;;
68050;SDS011;54839;51.364;7.246;2023-04-06T02:54:05;10.43;;;8.50;;
68050;SDS011;54839;51.364;7.246;2023-04-06T02:56:30;11.67;;;8.10;;
68050;SDS011;54839;51.364;7.246;2023-04-06T02:58:56;33.27;;;9.50;;
68050;SDS011;54839;51.364;7.246;2023-04-06T03:01:21;12.70;;;8.10;;
68050;SDS011;54839;51.364;7.246;2023-04-06T03:03:47;9.77;;;7.57;;
68050;SDS011;54839;51.364;7.246;2023-04-06T03:06:12;8.97;;;7.77;;
68050;SDS011;54839;51.364;7.246;2023-04-06T03:08:38;10.50;;;7.27;;
68050;SDS011;54839;51.364;7.246;2023-04-06T03:11:03;15.93;;;8.47;;
68050;SDS011;54839;51.364;7.246;2023-04-06T03:13:29;16.73;;;9.20;;
68050;SDS011;54839;51.364;7.246;2023-04-06T03:15:55;8.03;;;6.87;;
68050;SDS011;54839;51.364;7.246;2023-04-06T03:18:21;15.83;;;7.73;;
68050;SDS011;54839;51.364;7.246;2023-04-06T03:20:50;8.37;;;7.07;;
68050;SDS011;54839;51.364;7.246;2023-04-06T03:23:18;12.70;;;7.03;;
68050;SDS011;54839;51.364;7.246;2023-04-06T03:25:45;11.87;;;8.37;;
68050;SDS011;54839;51.364;7.246;2023-04-06T03:28:11;10.03;;;8.63;;
68050;SDS011;54839;51.364;7.246;2023-04-06T03:30:36;11.97;;;7.50;;
68050;SDS011;54839;51.364;7.246;2023-04-06T03:33:02;10.70;;;7.60;;
68050;SDS011;54839;51.364;7.246;2023-04-06T03:35:28;9.10;;;7.73;;
68050;SDS011;54839;51.364;7.246;2023-04-06T03:37:53;9.83;;;8.40;;
68050;SDS011;54839;51.364;7.246;2023-04-06T03:40:19;10.60;;;7.50;;
68050;SDS011;54839;51.364;7.246;2023-04-06T03:42:44;12.43;;;6.97;;
68050;SDS011;54839;51.364;7.246;2023-04-06T03:45:10;14.63;;;8.53;;
68050;SDS011;54839;51.364;7.246;2023-04-06T03:47:37;14.07;;;8.70;;
68050;SDS011;54839;51.364;7.246;2023-04-06T03:50:03;12.90;;;8.00;;
68050;SDS011;54839;51.364;7.246;2023-04-06T03:52:29;8.70;;;7.07;;
68050;SDS011;54839;51.364;7.246;2023-04-06T03:54:54;12.67;;;9.07;;
68050;SDS011;54839;51.364;7.246;2023-04-06T03:57:20;11.73;;;8.27;;
68050;SDS011;54839;51.364;7.246;2023-04-06T03:59:45;9.23;;;7.87;;
68050;SDS011;54839;51.364;7.246;2023-04-06T04:02:11;10.33;;;8.10;;
68050;SDS011;54839;51.364;7.246;2023-04-06T04:04:36;15.50;;;8.10;;
68050;SDS011;54839;51.364;7.246;2023-04-06T04:07:02;10.23;;;7.70;;
68050;SDS011;54839;51.364;7.246;2023-04-06T04:09:28;11.70;;;9.53;;
68050;SDS011;54839;51.364;7.246;2023-04-06T04:11:53;11.30;;;8.90;;
68050;SDS011;54839;51.364;7.246;2023-04-06T04:14:19;11.37;;;8.23;;
68050;SDS011;54839;51.364;7.246;2023-04-06T04:16:45;9.40;;;8.43;;
68050;SDS011;54839;51.364;7.246;2023-04-06T04:19:10;24.47;;;9.40;;
68050;SDS011;54839;51.364;7.246;2023-04-06T04:21:42;8.43;;;7.13;;
68050;SDS011;54839;51.364;7.246;2023-04-06T04:24:09;10.53;;;7.53;;
68050;SDS011;54839;51.364;7.246;2023-04-06T04:26:35;15.30;;;8.30;;
68050;SDS011;54839;51.364;7.246;2023-04-06T04:29:01;12.27;;;7.60;;
68050;SDS011;54839;51.364;7.246;2023-04-06T04:31:26;11.37;;;7.80;;
68050;SDS011;54839;51.364;7.246;2023-04-06T04:33:52;11.43;;;7.63;;
68050;SDS011;54839;51.364;7.246;2023-04-06T04:36:17;11.17;;;7.40;;
68050;SDS011;54839;51.364;7.246;2023-04-06T04:38:43;11.40;;;8.40;;
68050;SDS011;54839;51.364;7.246;2023-04-06T04:41:08;9.40;;;6.87;;
68050;SDS011;54839;51.364;7.246;2023-04-06T04:43:34;9.07;;;7.50;;
68050;SDS011;54839;51.364;7.246;2023-04-06T04:45:59;12.50;;;8.50;;
68050;SDS011;54839;51.364;7.246;2023-04-06T04:48:25;13.67;;;8.13;;
68050;SDS011;54839;51.364;7.246;2023-04-06T04:50:51;15.37;;;8.30;;
68050;SDS011;54839;51.364;7.246;2023-04-06T04:53:16;8.20;;;7.33;;
68050;SDS011;54839;51.364;7.246;2023-04-06T04:55:42;16.30;;;10.50;;
68050;SDS011;54839;51.364;7.246;2023-04-06T04:58:07;13.57;;;7.90;;
68050;SDS011;54839;51.364;7.246;2023-04-06T05:00:34;23.03;;;10.70;;
68050;SDS011;54839;51.364;7.246;2023-04-06T05:03:00;13.93;;;7.47;;
68050;SDS011;54839;51.364;7.246;2023-04-06T05:05:25;11.13;;;6.87;;
68050;SDS011;54839;51.364;7.246;2023-04-06T05:07:51;17.80;;;8.47;;
68050;SDS011;54839;51.364;7.246;2023-04-06T05:10:16;14.00;;;7.90;;
68050;SDS011;54839;51.364;7.246;2023-04-06T05:12:42;16.40;;;7.70;;
68050;SDS011;54839;51.364;7.246;2023-04-06T05:15:08;12.83;;;7.70;;
68050;SDS011;54839;51.364;7.246;2023-04-06T05:17:34;14.63;;;8.63;;
68050;SDS011;54839;51.364;7.246;2023-04-06T05:20:00;10.90;;;8.17;;
68050;SDS011;54839;51.364;7.246;2023-04-06T05:22:25;15.43;;;8.80;;
68050;SDS011;54839;51.364;7.246;2023-04-06T05:24:51;9.83;;;8.10;;
68050;SDS011;54839;51.364;7.246;2023-04-06T05:27:16;10.03;;;7.13;;
68050;SDS011;54839;51.364;7.246;2023-04-06T05:29:42;8.60;;;6.83;;
68050;SDS011;54839;51.364;7.246;2023-04-06T05:32:07;8.67;;;7.57;;
68050;SDS011;54839;51.364;7.246;2023-04-06T05:34:33;12.27;;;7.40;;
68050;SDS011;54839;51.364;7.246;2023-04-06T05:36:59;12.00;;;7.30;;
68050;SDS011;54839;51.364;7.246;2023-04-06T05:39:25;11.17;;;7.30;;
68050;SDS011;54839;51.364;7.246;2023-04-06T05:41:51;10.73;;;7.50;;
68050;SDS011;54839;51.364;7.246;2023-04-06T05:44:16;7.80;;;6.37;;
68050;SDS011;54839;51.364;7.246;2023-04-06T05:46:42;16.03;;;8.00;;
68050;SDS011;54839;51.364;7.246;2023-04-06T05:49:07;25.43;;;9.50;;
68050;SDS011;54839;51.364;7.246;2023-04-06T05:51:33;14.70;;;7.77;;
68050;SDS011;54839;51.364;7.246;2023-04-06T05:53:59;13.30;;;7.80;;
68050;SDS011;54839;51.364;7.246;2023-04-06T05:56:24;12.83;;;6.97;;
68050;SDS011;54839;51.364;7.246;2023-04-06T05:58:50;22.70;;;10.03;;
68050;SDS011;54839;51.364;7.246;2023-04-06T06:01:15;8.80;;;6.67;;
68050;SDS011;54839;51.364;7.246;2023-04-06T06:03:41;11.57;;;8.10;;
68050;SDS011;54839;51.364;7.246;2023-04-06T06:06:07;8.60;;;6.90;;
68050;SDS011;54839;51.364;7.246;2023-04-06T06:08:32;14.63;;;7.97;;
68050;SDS011;54839;51.364;7.246;2023-04-06T06:10:58;9.40;;;8.00;;
68050;SDS011;54839;51.364;7.246;2023-04-06T06:13:24;14.13;;;9.13;;
68050;SDS011;54839;51.364;7.246;2023-04-06T06:15:50;19.83;;;9.10;;
68050;SDS011;54839;51.364;7.246;2023-04-06T06:18:15;10.17;;;8.03;;
68050;SDS011;54839;51.364;7.246;2023-04-06T06:20:41;8.10;;;6.87;;
68050;SDS011;54839;51.364;7.246;2023-04-06T06:23:07;13.40;;;7.33;;
68050;SDS011;54839;51.364;7.246;2023-04-06T06:25:32;9.70;;;6.70;;
68050;SDS011;54839;51.364;7.246;2023-04-06T06:27:58;10.60;;;7.63;;
68050;SDS011;54839;51.364;7.246;2023-04-06T06:30:24;13.20;;;7.80;;
68050;SDS011;54839;51.364;7.246;2023-04-06T06:32:50;8.30;;;5.97;;
68050;SDS011;54839;51.364;7.246;2023-04-06T06:35:16;8.23;;;6.13;;
68050;SDS011;54839;51.364;7.246;2023-04-06T06:37:42;10.07;;;7.83;;
68050;SDS011;54839;51.364;7.246;2023-04-06T06:40:08;8.87;;;6.27;;
68050;SDS011;54839;51.364;7.246;2023-04-06T06:42:35;9.40;;;7.53;;
68050;SDS011;54839;51.364;7.246;2023-04-06T06:45:00;8.90;;;7.07;;
68050;SDS011;54839;51.364;7.246;2023-04-06T06:47:26;11.37;;;7.37;;
68050;SDS011;54839;51.364;7.246;2023-04-06T06:49:52;9.77;;;8.77;;
68050;SDS011;54839;51.364;7.246;2023-04-06T06:52:17;9.53;;;8.27;;
68050;SDS011;54839;51.364;7.246;2023-04-06T06:54:43;10.00;;;6.63;;
68050;SDS011;54839;51.364;7.246;2023-04-06T06:57:09;10.40;;;7.83;;
68050;SDS011;54839;51.364;7.246;2023-04-06T06:59:35;9.70;;;7.80;;
68050;SDS011;54839;51.364;7.246;2023-04-06T07:02:00;8.33;;;7.00;;
68050;SDS011;54839;51.364;7.246;2023-04-06T07:04:26;14.70;;;8.90;;
68050;SDS011;54839;51.364;7.246;2023-04-06T07:06:51;12.03;;;8.40;;
68050;SDS011;54839;51.364;7.246;2023-04-06T07:09:17;11.90;;;8.07;;
68050;SDS011;54839;51.364;7.246;2023-04-06T07:11:43;10.17;;;7.47;;
68050;SDS011;54839;51.364;7.246;2023-04-06T07:14:09;11.97;;;7.70;;
68050;SDS011;54839;51.364;7.246;2023-04-06T07:16:36;12.33;;;7.80;;
68050;SDS011;54839;51.364;7.246;2023-04-06T07:19:02;10.20;;;6.00;;
68050;SDS011;54839;51.364;7.246;2023-04-06T07:21:27;9.80;;;5.97;;
68050;SDS011;54839;51.364;7.246;2023-04-06T07:23:53;12.93;;;8.30;;
68050;SDS011;54839;51.364;7.246;2023-04-06T07:26:18;12.13;;;6.67;;
68050;SDS011;54839;51.364;7.246;2023-04-06T07:28:44;11.80;;;8.43;;
68050;SDS011;54839;51.364;7.246;2023-04-06T07:31:09;13.37;;;8.27;;
68050;SDS011;54839;51.364;7.246;2023-04-06T07:33:35;14.07;;;8.60;;
68050;SDS011;54839;51.364;7.246;2023-04-06T07:36:00;11.37;;;7.43;;
68050;SDS011;54839;51.364;7.246;2023-04-06T07:38:26;9.90;;;7.50;;
68050;SDS011;54839;51.364;7.246;2023-04-06T07:40:51;10.90;;;7.80;;
68050;SDS011;54839;51.364;7.246;2023-04-06T07:43:17;10.30;;;7.37;;
68050;SDS011;54839;51.364;7.246;2023-04-06T07:45:43;9.00;;;7.30;;
68050;SDS011;54839;51.364;7.246;2023-04-06T07:48:08;11.20;;;8.93;;
68050;SDS011;54839;51.364;7.246;2023-04-06T07:50:34;9.77;;;8.77;;
68050;SDS011;54839;51.364;7.246;2023-04-06T07:53:00;8.87;;;7.90;;
68050;SDS011;54839;51.364;7.246;2023-04-06T07:55:26;8.30;;;6.70;;
68050;SDS011;54839;51.364;7.246;2023-04-06T07:57:52;11.87;;;7.70;;
68050;SDS011;54839;51.364;7.246;2023-04-06T08:00:17;12.30;;;7.73;;
68050;SDS011;54839;51.364;7.246;2023-04-06T08:02:43;9.70;;;8.70;;
68050;SDS011;54839;51.364;7.246;2023-04-06T08:05:09;11.63;;;7.70;;
68050;SDS011;54839;51.364;7.246;2023-04-06T08:07:34;9.73;;;7.13;;
68050;SDS011;54839;51.364;7.246;2023-04-06T08:10:01;11.13;;;7.20;;
68050;SDS011;54839;51.364;7.246;2023-04-06T08:12:26;12.00;;;7.50;;
68050;SDS011;54839;51.364;7.246;2023-04-06T08:14:52;11.47;;;9.17;;
68050;SDS011;54839;51.364;7.246;2023-04-06T08:17:18;15.10;;;8.47;;
68050;SDS011;54839;51.364;7.246;2023-04-06T08:19:44;11.10;;;8.00;;
68050;SDS011;54839;51.364;7.246;2023-04-06T08:22:10;15.63;;;9.90;;
68050;SDS011;54839;51.364;7.246;2023-04-06T08:24:36;10.77;;;7.83;;
68050;SDS011;54839;51.364;7.246;2023-04-06T08:27:02;10.90;;;7.97;;
68050;SDS011;54839;51.364;7.246;2023-04-06T08:29:28;9.37;;;8.20;;
68050;SDS011;54839;51.364;7.246;2023-04-06T08:31:53;17.83;;;8.70;;
68050;SDS011;54839;51.364;7.246;2023-04-06T08:34:19;11.57;;;8.03;;
68050;SDS011;54839;51.364;7.246;2023-04-06T08:36:45;11.27;;;8.20;;
68050;SDS011;54839;51.364;7.246;2023-04-06T08:39:11;14.03;;;9.63;;
68050;SDS011;54839;51.364;7.246;2023-04-06T08:41:37;12.23;;;9.00;;
68050;SDS011;54839;51.364;7.246;2023-04-06T08:44:03;17.40;;;9.33;;
68050;SDS011;54839;51.364;7.246;2023-04-06T08:46:30;11.83;;;9.37;;
68050;SDS011;54839;51.364;7.246;2023-04-06T08:48:56;10.87;;;9.17;;
68050;SDS011;54839;51.364;7.246;2023-04-06T08:51:23;15.30;;;10.77;;
68050;SDS011;54839;51.364;7.246;2023-04-06T08:53:53;16.13;;;9.73;;
68050;SDS011;54839;51.364;7.246;2023-04-06T08:56:20;10.73;;;9.37;;
68050;SDS011;54839;51.364;7.246;2023-04-06T08:58:47;13.77;;;9.70;;
68050;SDS011;54839;51.364;7.246;2023-04-06T09:01:13;13.57;;;10.10;;
68050;SDS011;54839;51.364;7.246;2023-04-06T09:03:41;11.30;;;9.93;;
68050;SDS011;54839;51.364;7.246;2023-04-06T09:06:08;15.57;;;10.90;;
68050;SDS011;54839;51.364;7.246;2023-04-06T09:08:35;13.43;;;9.33;;
68050;SDS011;54839;51.364;7.246;2023-04-06T09:11:03;14.77;;;10.50;;
68050;SDS011;54839;51.364;7.246;2023-04-06T09:13:30;12.43;;;10.57;;
68050;SDS011;54839;51.364;7.246;2023-04-06T09:16:00;15.47;;;11.60;;
68050;SDS011;54839;51.364;7.246;2023-04-06T09:18:29;12.70;;;10.20;;
68050;SDS011;54839;51.364;7.246;2023-04-06T09:20:58;13.57;;;10.13;;
68050;SDS011;54839;51.364;7.246;2023-04-06T09:23:25;13.70;;;10.00;;
68050;SDS011;54839;51.364;7.246;2023-04-06T09:25:51;12.80;;;10.10;;
68050;SDS011;54839;51.364;7.246;2023-04-06T09:28:16;11.57;;;9.23;;
68050;SDS011;54839;51.364;7.246;2023-04-06T09:30:51;16.80;;;10.50;;
68050;SDS011;54839;51.364;7.246;2023-04-06T09:33:23;16.90;;;9.43;;
68050;SDS011;54839;51.364;7.246;2023-04-06T09:35:49;14.10;;;10.53;;
68050;SDS011;54839;51.364;7.246;2023-04-06T09:38:15;15.50;;;11.80;;
68050;SDS011;54839;51.364;7.246;2023-04-06T09:40:48;16.57;;;12.70;;
68050;SDS011;54839;51.364;7.246;2023-04-06T09:43:23;16.07;;;10.80;;
68050;SDS011;54839;51.364;7.246;2023-04-06T09:45:50;14.77;;;10.70;;
68050;SDS011;54839;51.364;7.246;2023-04-06T09:48:16;17.73;;;11.93;;
68050;SDS011;54839;51.364;7.246;2023-04-06T09:50:44;14.50;;;12.00;;
68050;SDS011;54839;51.364;7.246;2023-04-06T09:53:10;16.30;;;12.10;;
68050;SDS011;54839;51.364;7.246;2023-04-06T09:55:42;16.50;;;11.83;;
68050;SDS011;54839;51.364;7.246;2023-04-06T09:58:11;22.53;;;14.77;;
68050;SDS011;54839;51.364;7.246;2023-04-06T10:01:02;16.93;;;13.00;;
68050;SDS011;54839;51.364;7.246;2023-04-06T10:05:57;20.27;;;12.70;;
68050;SDS011;54839;51.364;7.246;2023-04-06T10:08:27;18.33;;;12.97;;
68050;SDS011;54839;51.364;7.246;2023-04-06T10:10:54;18.10;;;12.97;;
68050;SDS011;54839;51.364;7.246;2023-04-06T10:13:20;17.47;;;12.40;;
68050;SDS011;54839;51.364;7.246;2023-04-06T10:15:46;22.53;;;13.87;;
68050;SDS011;54839;51.364;7.246;2023-04-06T10:18:13;19.50;;;14.30;;
68050;SDS011;54839;51.364;7.246;2023-04-06T10:20:41;16.80;;;13.70;;
68050;SDS011;54839;51.364;7.246;2023-04-06T10:26:00;16.40;;;13.53;;
68050;SDS011;54839;51.364;7.246;2023-04-06T10:28:30;22.37;;;16.23;;
68050;SDS011;54839;51.364;7.246;2023-04-06T10:30:58;20.60;;;14.63;;
68050;SDS011;54839;51.364;7.246;2023-04-06T10:33:25;17.57;;;13.77;;
68050;SDS011;54839;51.364;7.246;2023-04-06T10:35:51;19.27;;;14.67;;
68050;SDS011;54839;51.364;7.246;2023-04-06T10:38:19;17.93;;;14.53;;
68050;SDS011;54839;51.364;7.246;2023-04-06T10:40:47;22.93;;;15.17;;
68050;SDS011;54839;51.364;7.246;2023-04-06T10:43:17;16.23;;;11.10;;
68050;SDS011;54839;51.364;7.246;2023-04-06T10:45:57;22.43;;;13.07;;
68050;SDS011;54839;51.364;7.246;2023-04-06T10:48:24;16.93;;;12.33;;
68050;SDS011;54839;51.364;7.246;2023-04-06T10:51:00;28.97;;;16.97;;
68050;SDS011;54839;51.364;7.246;2023-04-06T10:53:26;20.73;;;17.33;;
68050;SDS011;54839;51.364;7.246;2023-04-06T10:55:54;19.47;;;15.70;;
68050;SDS011;54839;51.364;7.246;2023-04-06T10:58:24;23.40;;;18.70;;
68050;SDS011;54839;51.364;7.246;2023-04-06T11:00:50;24.23;;;19.37;;
68050;SDS011;54839;51.364;7.246;2023-04-06T11:03:16;26.43;;;18.43;;
68050;SDS011;54839;51.364;7.246;2023-04-06T11:05:45;18.50;;;14.17;;
68050;SDS011;54839;51.364;7.246;2023-04-06T11:08:29;19.17;;;16.70;;
68050;SDS011;54839;51.364;7.246;2023-04-06T11:11:12;24.50;;;18.20;;
68050;SDS011;54839;51.364;7.246;2023-04-06T11:13:59;21.80;;;16.00;;
68050;SDS011;54839;51.364;7.246;2023-04-06T11:16:26;22.63;;;17.40;;
68050;SDS011;54839;51.364;7.246;2023-04-06T11:18:55;23.43;;;15.73;;
68050;SDS011;54839;51.364;7.246;2023-04-06T11:21:31;21.40;;;18.10;;
68050;SDS011;54839;51.364;7.246;2023-04-06T11:24:31;21.03;;;18.67;;
68050;SDS011;54839;51.364;7.246;2023-04-06T11:26:52;23.70;;;17.60;;
68050;SDS011;54839;51.364;7.246;2023-04-06T11:29:22;24.10;;;17.10;;
68050;SDS011;54839;51.364;7.246;2023-04-06T11:31:50;25.67;;;18.20;;
68050;SDS011;54839;51.364;7.246;2023-04-06T11:34:18;26.83;;;18.50;;
68050;SDS011;54839;51.364;7.246;2023-04-06T11:36:45;24.50;;;17.63;;
68050;SDS011;54839;51.364;7.246;2023-04-06T11:39:19;21.50;;;17.30;;
68050;SDS011;54839;51.364;7.246;2023-04-06T11:41:49;18.17;;;14.30;;
68050;SDS011;54839;51.364;7.246;2023-04-06T11:44:28;27.90;;;16.33;;
68050;SDS011;54839;51.364;7.246;2023-04-06T11:46:57;33.23;;;20.30;;
68050;SDS011;54839;51.364;7.246;2023-04-06T11:49:26;17.97;;;13.80;;
68050;SDS011;54839;51.364;7.246;2023-04-06T11:51:53;17.00;;;13.63;;
68050;SDS011;54839;51.364;7.246;2023-04-06T11:54:29;19.40;;;13.87;;
68050;SDS011;54839;51.364;7.246;2023-04-06T11:56:55;20.07;;;12.90;;
68050;SDS011;54839;51.364;7.246;2023-04-06T11:59:21;17.77;;;13.80;;
68050;SDS011;54839;51.364;7.246;2023-04-06T12:01:47;21.83;;;15.70;;
68050;SDS011;54839;51.364;7.246;2023-04-06T12:04:13;18.03;;;13.27;;
68050;SDS011;54839;51.364;7.246;2023-04-06T12:06:39;21.90;;;15.07;;
68050;SDS011;54839;51.364;7.246;2023-04-06T12:09:05;20.00;;;13.80;;
68050;SDS011;54839;51.364;7.246;2023-04-06T12:11:30;19.13;;;15.30;;
68050;SDS011;54839;51.364;7.246;2023-04-06T12:13:56;18.13;;;15.27;;
68050;SDS011;54839;51.364;7.246;2023-04-06T12:16:21;20.00;;;13.37;;
68050;SDS011;54839;51.364;7.246;2023-04-06T12:18:47;17.63;;;14.50;;
68050;SDS011;54839;51.364;7.246;2023-04-06T12:21:13;15.20;;;13.50;;
68050;SDS011;54839;51.364;7.246;2023-04-06T12:23:39;16.30;;;13.23;;
68050;SDS011;54839;51.364;7.246;2023-04-06T12:26:04;19.23;;;14.57;;
68050;SDS011;54839;51.364;7.246;2023-04-06T12:28:30;19.97;;;12.83;;
68050;SDS011;54839;51.364;7.246;2023-04-06T12:30:55;16.07;;;13.00;;
68050;SDS011;54839;51.364;7.246;2023-04-06T12:33:21;21.00;;;14.23;;
68050;SDS011;54839;51.364;7.246;2023-04-06T12:35:47;16.33;;;12.40;;
68050;SDS011;54839;51.364;7.246;2023-04-06T12:38:12;20.10;;;13.53;;
68050;SDS011;54839;51.364;7.246;2023-04-06T12:40:38;22.77;;;13.87;;
68050;SDS011;54839;51.364;7.246;2023-04-06T12:43:04;16.30;;;13.83;;
68050;SDS011;54839;51.364;7.246;2023-04-06T12:45:31;16.37;;;13.50;;
68050;SDS011;54839;51.364;7.246;2023-04-06T12:47:57;16.50;;;13.20;;
68050;SDS011;54839;51.364;7.246;2023-04-06T12:50:23;20.03;;;14.13;;
68050;SDS011;54839;51.364;7.246;2023-04-06T12:52:49;15.90;;;13.50;;
68050;SDS011;54839;51.364;7.246;2023-04-06T12:55:15;20.33;;;15.10;;
68050;SDS011;54839;51.364;7.246;2023-04-06T12:57:40;20.60;;;14.67;;
68050;SDS011;54839;51.364;7.246;2023-04-06T13:00:06;18.93;;;14.00;;
68050;SDS011;54839;51.364;7.246;2023-04-06T13:02:33;23.87;;;14.57;;
68050;SDS011;54839;51.364;7.246;2023-04-06T13:04:59;20.97;;;16.13;;
68050;SDS011;54839;51.364;7.246;2023-04-06T13:07:25;15.90;;;12.33;;
68050;SDS011;54839;51.364;7.246;2023-04-06T13:09:51;22.10;;;14.77;;
68050;SDS011;54839;51.364;7.246;2023-04-06T13:12:17;19.43;;;13.23;;
68050;SDS011;54839;51.364;7.246;2023-04-06T13:14:43;17.50;;;13.83;;
68050;SDS011;54839;51.364;7.246;2023-04-06T13:17:08;19.23;;;13.70;;
68050;SDS011;54839;51.364;7.246;2023-04-06T13:19:34;15.93;;;12.90;;
68050;SDS011;54839;51.364;7.246;2023-04-06T13:22:00;12.10;;;10.20;;
68050;SDS011;54839;51.364;7.246;2023-04-06T13:24:25;13.20;;;11.10;;
68050;SDS011;54839;51.364;7.246;2023-04-06T13:26:51;14.00;;;10.80;;
68050;SDS011;54839;51.364;7.246;2023-04-06T13:29:16;14.53;;;11.47;;
68050;SDS011;54839;51.364;7.246;2023-04-06T13:31:42;15.03;;;12.90;;
68050;SDS011;54839;51.364;7.246;2023-04-06T13:34:08;13.60;;;10.90;;
68050;SDS011;54839;51.364;7.246;2023-04-06T13:36:33;19.83;;;11.90;;
68050;SDS011;54839;51.364;7.246;2023-04-06T13:38:59;17.97;;;14.60;;
68050;SDS011;54839;51.364;7.246;2023-04-06T13:41:24;17.63;;;13.63;;
68050;SDS011;54839;51.364;7.246;2023-04-06T13:43:51;15.70;;;13.63;;
68050;SDS011;54839;51.364;7.246;2023-04-06T13:46:17;17.40;;;12.90;;
68050;SDS011;54839;51.364;7.246;2023-04-06T13:48:43;18.73;;;15.00;;
68050;SDS011;54839;51.364;7.246;2023-04-06T13:51:11;18.03;;;13.43;;
68050;SDS011;54839;51.364;7.246;2023-04-06T13:53:38;18.20;;;13.13;;
68050;SDS011;54839;51.364;7.246;2023-04-06T13:56:04;18.60;;;13.37;;
68050;SDS011;54839;51.364;7.246;2023-04-06T13:58:31;19.87;;;14.60;;
68050;SDS011;54839;51.364;7.246;2023-04-06T14:01:03;22.87;;;14.90;;
68050;SDS011;54839;51.364;7.246;2023-04-06T14:03:34;12.90;;;9.33;;
68050;SDS011;54839;51.364;7.246;2023-04-06T14:06:00;12.07;;;9.17;;
68050;SDS011;54839;51.364;7.246;2023-04-06T14:08:26;10.30;;;8.07;;
68050;SDS011;54839;51.364;7.246;2023-04-06T14:10:52;17.20;;;10.60;;
68050;SDS011;54839;51.364;7.246;2023-04-06T14:13:19;14.77;;;10.40;;
68050;SDS011;54839;51.364;7.246;2023-04-06T14:15:44;19.70;;;12.07;;
68050;SDS011;54839;51.364;7.246;2023-04-06T14:18:10;15.63;;;12.43;;
68050;SDS011;54839;51.364;7.246;2023-04-06T14:20:36;19.13;;;13.33;;
68050;SDS011;54839;51.364;7.246;2023-04-06T14:23:02;15.07;;;11.53;;
68050;SDS011;54839;51.364;7.246;2023-04-06T14:25:28;13.90;;;11.57;;
68050;SDS011;54839;51.364;7.246;2023-04-06T14:27:56;16.37;;;10.67;;
68050;SDS011;54839;51.364;7.246;2023-04-06T14:30:21;19.43;;;13.50;;
68050;SDS011;54839;51.364;7.246;2023-04-06T14:32:47;15.17;;;11.13;;